Chadstone Weather > Observations for 06/03/21

Select Day:



Observations
Time Temp Hum DP Wind Gust Dir Rain >9am Press
C % C kph kph mm hPa
00:00 15.0 65 8.5 5.3 15.8 SE 0.0 1000.8
00:10 15.0 65 8.5 3.7 14.8 SW 0.0 1000.5
00:20 15.0 65 8.5 2.2 15.8 S 0.0 1000.5
00:30 15.0 65 8.5 3.8 12.2 S 0.0 1000.4
00:40 14.9 65 8.4 6.6 17.3 S 0.0 1000.3
00:50 14.9 65 8.4 3.1 15.8 W 0.0 1000.3
01:00 14.9 66 8.6 4.4 15.8 SSW 0.0 1000.3
01:10 14.9 67 8.8 3.3 11.2 SSE 0.0 1000.1
01:20 14.8 68 9.0 3.3 12.2 SSE 0.0 1000.1
01:30 14.7 66 8.4 5.6 17.3 S 0.0 1000.0
01:40 14.7 65 8.2 4.0 13.3 S 0.0 999.7
01:50 14.6 65 8.1 2.3 13.3 S 0.0 999.6
02:00 14.6 66 8.3 2.9 9.7 SSE 0.0 999.4
02:10 14.6 66 8.3 6.6 19.4 SSW 0.0 999.4
02:20 14.7 66 8.4 2.9 9.7 SSE 0.0 999.4
02:30 14.6 67 8.5 4.8 12.2 S 0.0 999.4
02:40 14.6 68 8.8 3.4 11.2 S 0.0 999.4
02:50 14.6 68 8.8 2.0 9.7 S 0.0 999.3
03:00 14.6 68 8.8 0.9 3.6 SW 0.0 999.2
03:10 14.6 68 8.8 2.9 11.2 S 0.0 999.0
03:20 14.6 68 8.8 1.7 9.7 SW 0.0 999.0
03:30 14.6 68 8.8 4.1 17.3 SSE 0.0 998.8
03:40 14.6 67 8.5 4.1 12.2 S 0.0 998.8
03:50 14.6 67 8.5 3.0 12.2 S 0.0 998.8
04:00 14.6 67 8.5 2.3 8.6 S 0.0 998.7
04:10 14.6 69 9.0 3.4 14.8 SSE 0.0 998.5
04:20 14.5 71 9.3 4.4 15.8 SSE 0.0 998.5
04:30 14.5 71 9.3 4.5 14.8 SE 0.0 998.6
04:40 14.5 71 9.3 5.9 13.3 SW 0.0 998.7
04:50 14.4 70 9.0 6.4 19.4 SSE 0.0 998.7
05:00 14.3 69 8.7 4.8 11.2 SSW 0.0 998.6
05:10 14.3 69 8.7 6.5 13.3 SSE 0.0 998.6
05:20 14.2 69 8.6 5.9 20.9 S 0.0 998.6
05:30 14.2 69 8.6 4.4 20.9 SSE 0.0 998.7
05:40 14.2 69 8.6 2.8 7.2 S 0.0 998.8
05:50 14.2 69 8.6 4.8 13.3 SSE 0.0 998.7
06:00 14.2 70 8.8 3.6 13.3 S 0.0 998.6
06:10 14.2 70 8.8 3.1 11.2 S 0.0 998.5
06:20 14.2 70 8.8 4.8 8.6 S 0.0 998.6
06:30 14.3 69 8.7 7.3 15.8 SE 0.0 998.4
06:40 14.2 69 8.6 5.9 15.8 SSE 0.0 998.5
06:50 14.2 69 8.6 6.8 17.3 SE 0.0 998.5
07:00 14.2 68 8.4 4.7 13.3 WSW 0.0 998.6
07:10 14.1 68 8.3 4.2 13.3 SSW 0.0 998.6
07:20 14.1 68 8.3 5.9 14.8 S 0.0 998.7
07:30 14.1 68 8.3 8.0 15.8 SSE 0.0 998.9
07:40 14.2 68 8.4 7.0 13.3 SSE 0.0 998.8
07:50 14.2 68 8.4 5.5 15.8 SSE 0.0 998.8
08:00 14.2 68 8.4 4.7 13.3 SE 0.0 999.0
08:10 14.4 68 8.6 4.4 12.2 SE 0.0 999.0
08:20 14.5 69 8.9 2.3 8.6 SSE 0.0 999.0
08:30 14.6 69 9.0 2.7 9.7 SSW 0.0 998.9
08:40 14.7 68 8.9 2.8 11.2 S 0.0 999.0
08:50 14.9 68 9.1 3.9 11.2 S 0.0 999.0
09:00 15.0 67 8.9 3.9 12.2 SSE 0.0 998.9
09:10 15.2 67 9.1 1.4 9.7 SSE 0.0 998.9
09:20 15.4 66 9.1 3.1 13.3 SSE 0.0 998.8
09:30 15.7 66 9.4 3.1 11.2 SSE 0.0 999.2
09:40 15.9 65 9.3 5.9 13.3 SE 0.0 999.0
09:50 16.1 64 9.3 5.6 15.8 SSE 0.0 998.9
10:00 16.1 63 9.1 4.4 12.2 S 0.0 999.0
10:10 16.3 64 9.5 2.6 11.2 SSE 0.0 999.0
10:20 16.5 63 9.4 2.3 11.2 SE 0.0 999.0
10:30 17.0 62 9.7 2.5 11.2 WSW 0.0 998.8
10:40 17.5 61 9.9 6.1 17.3 SE 0.0 998.9
10:50 17.9 60 10.0 4.2 14.8 N 0.0 999.1
11:00 18.0 57 9.4 5.4 15.8 SSE 0.0 999.4
11:10 18.0 57 9.4 7.5 17.3 SSE 0.0 999.5
11:20 18.4 57 9.7 3.6 12.2 S 0.0 999.5
11:30 18.7 56 9.8 6.4 15.8 SSE 0.0 999.6
11:40 19.4 55 10.1 5.6 13.3 E 0.0 999.6
11:50 19.4 54 9.9 3.4 13.3 SSW 0.0 999.7
12:00 19.7 53 9.9 3.6 15.8 WSW 0.0 999.7
12:10 20.0 50 9.3 4.4 13.3 S 0.0 999.5
12:20 20.2 50 9.5 5.3 14.8 SSE 0.0 999.5
12:30 20.3 48 8.9 5.4 19.4 SSE 0.0 998.9
12:40 20.6 49 9.5 4.8 15.8 SE 0.0 998.8
12:50 20.6 51 10.1 3.8 12.2 SSE 0.0 998.7
13:00 21.0 50 10.2 3.7 11.2 E 0.0 998.5
13:10 21.3 50 10.5 3.6 13.3 SSE 0.0 998.4
13:20 20.9 53 11.0 3.6 14.8 WSW 0.0 998.5
13:30 21.0 53 11.1 3.7 14.8 SSW 0.0 998.6
13:40 20.8 53 10.9 4.9 15.8 S 0.0 998.5
13:50 20.8 53 10.9 3.6 11.2 SSE 0.0 998.4
14:00 21.0 53 11.1 4.8 17.3 SSW 0.0 998.3
14:10 20.8 54 11.2 4.1 13.3 SSW 0.0 998.3
14:20 20.7 54 11.1 4.6 12.2 S 0.0 998.1
14:30 20.8 55 11.4 4.1 12.2 SSW 0.0 998.0
14:40 20.9 56 11.8 4.4 14.8 S 0.0 998.0
14:50 20.8 56 11.7 4.5 12.2 SW 0.0 997.8
15:00 21.0 56 11.9 4.6 20.9 NNW 0.0 997.7
15:10 20.6 58 12.1 4.3 14.8 SW 0.0 997.4
15:20 20.7 58 12.2 3.7 11.2 SW 0.0 997.4
15:30 20.8 58 12.2 2.7 11.2 SSE 0.0 997.2
15:40 20.7 59 12.4 4.1 17.3 SSW 0.0 997.1
15:50 20.7 60 12.7 4.1 9.7 S 0.0 997.0
16:00 20.6 60 12.6 5.3 15.8 SSE 0.0 996.8
16:10 20.3 61 12.5 4.4 13.3 W 0.0 996.8
16:20 20.2 62 12.7 3.9 14.8 SW 0.0 996.6
16:30 20.4 62 12.9 3.8 13.3 SSE 0.0 996.7
16:40 20.2 63 12.9 4.4 17.3 S 0.0 996.7
16:50 20.3 63 13.0 3.4 12.2 S 0.0 996.6
17:00 20.2 63 12.9 4.5 15.8 SSW 0.0 996.7
17:10 19.9 65 13.1 5.3 17.3 SSW 0.0 996.6
17:20 19.7 66 13.2 4.7 13.3 W 0.0 996.7
17:30 19.9 66 13.4 3.5 11.2 NW 0.0 996.7
17:40 19.8 66 13.3 4.2 12.2 S 0.0 996.7
17:50 19.5 67 13.2 4.3 15.8 SSW 0.0 996.7
18:00 19.4 67 13.1 3.9 15.8 SSW 0.0 996.7
18:10 19.3 68 13.3 6.0 13.3 SSW 0.0 996.7
18:20 19.3 68 13.3 3.9 12.2 S 0.0 996.7
18:30 19.3 69 13.5 3.4 13.3 S 0.0 996.7
18:40 19.1 69 13.3 5.2 20.9 SSW 0.0 996.6
18:50 19.0 70 13.4 3.9 20.9 S 0.0 996.5
19:00 19.0 69 13.2 3.2 9.7 SSE 0.0 996.7
19:10 18.9 70 13.3 1.9 14.8 SSW 0.0 996.6
19:20 18.8 70 13.2 6.1 17.3 SSE 0.0 996.5
19:30 18.7 69 12.9 7.6 22.0 S 0.0 996.6
19:40 18.6 70 13.0 3.7 13.3 SSW 0.0 996.7
19:50 18.2 70 12.6 5.3 15.8 S 0.0 996.5
20:00 18.0 71 12.7 6.6 17.3 SSE 0.0 996.6
20:10 17.9 72 12.8 5.2 15.8 SSW 0.0 996.7
20:20 17.6 73 12.7 6.8 17.3 S 0.0 996.6
20:30 17.3 73 12.4 6.3 19.4 S 0.0 996.8
20:40 17.3 74 12.6 1.8 9.7 SSE 0.0 996.9
20:50 17.1 74 12.4 2.4 11.2 SSW 0.0 997.0
21:00 16.9 76 12.7 3.5 11.2 SE 0.0 997.1
21:10 16.8 77 12.8 3.6 12.2 SSE 0.0 997.2
21:20 16.8 78 13.0 2.5 8.6 SSW 0.0 997.3
21:30 16.7 78 12.9 2.7 8.6 SSE 0.0 997.2
21:40 16.6 79 13.0 2.9 9.7 SSE 0.0 997.5
21:50 16.5 79 12.9 1.2 9.7 S 0.0 997.4
22:00 16.4 79 12.8 0.5 6.1 SW 0.0 997.6
22:10 16.2 80 12.8 0.9 6.1 SSE 0.0 997.5
22:20 16.2 80 12.8 2.2 6.1 SSE 0.0 997.4
22:30 16.2 80 12.8 1.9 5.0 S 0.0 997.2
22:40 16.1 80 12.7 1.2 6.1 SSE 0.0 997.0
22:50 16.0 80 12.6 0.0 2.5 SE 0.0 998.0
23:00 15.9 82 12.8 0.0 2.5 ESE 0.0 998.3
23:10 15.8 82 12.7 0.0 0.0 N 0.0 997.1
23:20 15.6 82 12.5 0.0 0.0 N 0.0 997.3
23:30 15.5 82 12.4 0.0 0.0 N 0.0 996.6
23:40 15.4 83 12.5 0.0 0.0 N 0.0 996.7
23:50 15.2 83 12.3 0.0 0.0 N 0.0 996.0